tititudorancea.com
Station Historical Data
 
Daily Summary for June 28, 2016 Units:  Metric    English   Both
« Previous Day
Next Day »
Daily Weekly Monthly Yearly Custom
  Current: High: Low: Average:
Temperature: 8.7 °C 14.8 °C 3.4 °C 8.9 °C
Dew Point: 8.6 °C 12.6 °C 3.3 °C 8.3 °C
Humidity: 99 % 99 % 85 % 97 %
Wind Speed: 0 km/h 9.7 km/h 0 km/h 2.9 km/h
Wind Gust: 0 km/h 18.3 km/h - -
Wind:Calm - - WSW
Pressure: 1032.4 hPa 1032.7 hPa 1027.7 hPa -
Precipitation: 1.27 mm      
Historical Graphs
 
 
Ararat weather Find more about Weather in Ararat, AU


 



 


Tabular Data for June 28, 2016
Time Temperature Dew Point Pressure Wind Wind Speed Wind Gust Humidity Rainfall Rate (Hourly)
00:04 5.8 °C 5.6 °C 1028.3 hPa NNW 1.1 km/h 9.7 km/h 99 % 0 mm
00:14 5.7 °C 5.6 °C 1028.3 hPa NNW 1.1 km/h 6.1 km/h 99 % 0 mm
00:20 5.6 °C 5.4 °C 1028.3 hPa NNW 1.1 km/h 6.1 km/h 99 % 0 mm
00:25 5.6 °C 5.4 °C 1028.3 hPa NW 2.6 km/h 5 km/h 99 % 0 mm
00:30 5.5 °C 5.3 °C 1028 hPa NW 1.1 km/h 5 km/h 99 % 0 mm
00:35 5.5 °C 5.3 °C 1028 hPa NW 1.1 km/h 5 km/h 99 % 0 mm
00:40 5.4 °C 5.2 °C 1028 hPa NW 1.1 km/h 6.1 km/h 99 % 0 mm
00:45 5.4 °C 5.2 °C 1028 hPa NW 2.6 km/h 7.2 km/h 99 % 0 mm
00:50 5.4 °C 5.2 °C 1028 hPa NNW 2.6 km/h 7.2 km/h 99 % 0 mm
00:55 5.3 °C 5.2 °C 1028 hPa NNW 1.1 km/h 6.1 km/h 99 % 0 mm
01:00 5.3 °C 5.2 °C 1028 hPa North 2.6 km/h 7.2 km/h 99 % 0 mm
01:05 5.3 °C 5.2 °C 1027.7 hPa Calm   7.2 km/h 99 % 0 mm
01:10 5.3 °C 5.2 °C 1027.7 hPa NNE 1.1 km/h 5 km/h 99 % 0 mm
01:16 5.2 °C 5.1 °C 1028 hPa NE 1.1 km/h 3.5 km/h 99 % 0 mm
01:21 5.2 °C 5.1 °C 1028 hPa Calm   3.5 km/h 99 % 0 mm
01:26 5.1 °C 4.9 °C 1028 hPa NNE 2.6 km/h 3.5 km/h 99 % 0 mm
01:31 5 °C 4.8 °C 1028 hPa North 1.1 km/h 5 km/h 99 % 0 mm
01:36 4.9 °C 4.8 °C 1028 hPa Calm   5 km/h 99 % 0 mm
01:41 4.8 °C 4.7 °C 1028 hPa NNW 1.1 km/h 5 km/h 99 % 0 mm
01:46 4.7 °C 4.6 °C 1027.7 hPa NW 1.1 km/h 5 km/h 99 % 0 mm
01:51 4.7 °C 4.6 °C 1027.7 hPa NW 1.1 km/h 6.1 km/h 99 % 0 mm
01:56 4.6 °C 4.4 °C 1028 hPa NW 1.1 km/h 6.1 km/h 99 % 0 mm
02:01 4.6 °C 4.4 °C 1028 hPa Calm   6.1 km/h 99 % 0 mm
02:06 4.6 °C 4.4 °C 1028 hPa NNW 1.1 km/h 5 km/h 99 % 0 mm
02:11 4.5 °C 4.4 °C 1028.3 hPa Calm   5 km/h 99 % 0 mm
02:16 4.4 °C 4.3 °C 1028 hPa Calm   2.6 km/h 99 % 0 mm
02:21 4.4 °C 4.3 °C 1028.3 hPa Calm   6.1 km/h 99 % 0 mm
02:27 4.4 °C 4.3 °C 1028 hPa North 1.1 km/h 6.1 km/h 99 % 0 mm
02:33 4.3 °C 4.2 °C 1028.3 hPa Calm   3.5 km/h 99 % 0 mm
02:38 4.2 °C 4.1 °C 1028.3 hPa NE 1.1 km/h 2.6 km/h 99 % 0 mm
02:43 4.1 °C 4 °C 1028 hPa NE 1.1 km/h 2.6 km/h 99 % 0 mm
02:48 3.9 °C 3.8 °C 1028.3 hPa Calm   2.6 km/h 99 % 0 mm
02:54 3.8 °C 3.7 °C 1028.3 hPa NE 1.1 km/h 5 km/h 99 % 0 mm
03:04 3.8 °C 3.7 °C 1028.3 hPa Calm   3.5 km/h 99 % 0 mm
03:09 3.7 °C 3.6 °C 1028.3 hPa NNE 1.1 km/h 3.5 km/h 99 % 0 mm
03:14 3.7 °C 3.6 °C 1028.3 hPa Calm   2.6 km/h 99 % 0 mm
03:19 3.6 °C 3.5 °C 1028.3 hPa Calm   2.6 km/h 99 % 0 mm
03:25 3.6 °C 3.4 °C 1028.7 hPa NNW 1.1 km/h 2.6 km/h 99 % 0 mm
03:30 3.4 °C 3.3 °C 1028.7 hPa Calm   2.6 km/h 99 % 0 mm
03:35 3.6 °C 3.4 °C 1028.7 hPa NNW 1.1 km/h 3.5 km/h 99 % 0 mm
03:40 3.7 °C 3.6 °C 1028.3 hPa NNW 1.1 km/h 5 km/h 99 % 0 mm
03:45 4 °C 3.9 °C 1028.7 hPa NNW 1.1 km/h 6.1 km/h 99 % 0 mm
03:50 4.3 °C 4.2 °C 1028.7 hPa NNW 2.6 km/h 7.2 km/h 99 % 0 mm
03:55 4.5 °C 4.4 °C 1028.7 hPa NNW 2.6 km/h 7.2 km/h 99 % 0 mm
04:00 4.7 °C 4.6 °C 1028.7 hPa NNW 3.5 km/h 11.1 km/h 99 % 0 mm
04:05 4.7 °C 4.6 °C 1028.3 hPa NW 2.6 km/h 11.1 km/h 99 % 0 mm
04:10 4.7 °C 4.6 °C 1028.3 hPa NNW 1.1 km/h 7.2 km/h 99 % 0 mm
04:15 4.8 °C 4.7 °C 1028.7 hPa NNW 1.1 km/h 6.1 km/h 99 % 0 mm
04:20 4.8 °C 4.7 °C 1028.3 hPa NW 1.1 km/h 6.1 km/h 99 % 0 mm
04:25 4.7 °C 4.6 °C 1028.3 hPa NW 2.6 km/h 7.2 km/h 99 % 0 mm
04:30 4.7 °C 4.6 °C 1028 hPa NW 2.6 km/h 7.2 km/h 99 % 0 mm
04:35 4.6 °C 4.4 °C 1028.3 hPa NNW 1.1 km/h 5 km/h 99 % 0 mm
04:40 4.5 °C 4.4 °C 1028.3 hPa NW 1.1 km/h 5 km/h 99 % 0 mm
04:45 4.4 °C 4.3 °C 1028.3 hPa NW 2.6 km/h 6.1 km/h 99 % 0 mm
04:50 4.3 °C 4.2 °C 1028 hPa NW 3.5 km/h 7.2 km/h 99 % 0 mm
04:55 4.4 °C 4.3 °C 1028.3 hPa North 2.6 km/h 7.2 km/h 99 % 0 mm
05:00 4.5 °C 4.4 °C 1028.3 hPa North 2.6 km/h 7.2 km/h 99 % 0 mm
05:05 4.5 °C 4.4 °C 1028.3 hPa North 2.6 km/h 6.1 km/h 99 % 0 mm
05:10 4.4 °C 4.3 °C 1028.3 hPa Calm   5 km/h 99 % 0 mm
05:15 4.3 °C 4.2 °C 1028.7 hPa North 1.1 km/h 3.5 km/h 99 % 0 mm
05:20 4.3 °C 4.2 °C 1028.7 hPa Calm   5 km/h 99 % 0 mm
05:25 4.3 °C 4.2 °C 1028.7 hPa NNE 2.6 km/h 5 km/h 99 % 0 mm
05:30 4.3 °C 4.2 °C 1028.7 hPa North 2.6 km/h 5 km/h 99 % 0 mm
05:40 4.2 °C 4.1 °C 1028.3 hPa NNW 1.1 km/h 5 km/h 99 % 0 mm
05:45 4.3 °C 4.2 °C 1028.7 hPa NNW 2.6 km/h 5 km/h 99 % 0 mm
05:50 4.3 °C 4.2 °C 1028.7 hPa NNW 1.1 km/h 5 km/h 99 % 0 mm
05:55 4.3 °C 4.2 °C 1028.7 hPa North 1.1 km/h 5 km/h 99 % 0 mm
06:00 4.3 °C 4.2 °C 1028.7 hPa Calm   3.5 km/h 99 % 0 mm
06:05 4.3 °C 4.2 °C 1029 hPa Calm   3.5 km/h 99 % 0 mm
06:10 4.2 °C 4.1 °C 1028.7 hPa NNE 3.5 km/h 5 km/h 99 % 0 mm
06:15 4.2 °C 4.1 °C 1028.7 hPa NNE 1.1 km/h 5 km/h 99 % 0 mm
06:20 4.1 °C 4 °C 1029 hPa Calm   5 km/h 99 % 0 mm
06:25 4 °C 3.9 °C 1028.7 hPa North 1.1 km/h 3.5 km/h 99 % 0 mm
06:30 3.9 °C 3.8 °C 1029 hPa North 2.6 km/h 5 km/h 99 % 0 mm
06:35 3.8 °C 3.7 °C 1029 hPa NNE 2.6 km/h 5 km/h 99 % 0 mm
06:40 3.8 °C 3.7 °C 1029.3 hPa Calm   5 km/h 99 % 0 mm
06:45 3.8 °C 3.7 °C 1029.3 hPa NNW 2.6 km/h 5 km/h 99 % 0 mm
06:51 4 °C 3.9 °C 1029.3 hPa NW 3.5 km/h 6.1 km/h 99 % 0 mm
06:56 4.1 °C 4 °C 1029 hPa NW 2.6 km/h 6.1 km/h 99 % 0 mm
07:01 4.3 °C 4.2 °C 1029.3 hPa NW 3.5 km/h 7.2 km/h 99 % 0 mm
07:06 4.4 °C 4.3 °C 1029.3 hPa NNW 2.6 km/h 8.7 km/h 99 % 0 mm
07:11 4.5 °C 4.4 °C 1029.3 hPa NW 2.6 km/h 8.7 km/h 99 % 0.25 mm
07:16 4.5 °C 4.4 °C 1029.3 hPa NNW 2.6 km/h 7.2 km/h 99 % 0.25 mm
07:26 4.5 °C 4.4 °C 1029.7 hPa North 1.1 km/h 6.1 km/h 99 % 0.25 mm
07:31 4.5 °C 4.4 °C 1029.7 hPa North 2.6 km/h 8.7 km/h 99 % 0.25 mm
07:36 4.5 °C 4.4 °C 1029.7 hPa NNW 1.1 km/h 8.7 km/h 99 % 0.25 mm
07:41 4.6 °C 4.4 °C 1029.7 hPa NNW 2.6 km/h 7.2 km/h 99 % 0.25 mm
07:46 4.7 °C 4.6 °C 1029.7 hPa NNW 2.6 km/h 8.7 km/h 99 % 0.25 mm
07:51 4.8 °C 4.7 °C 1029.7 hPa North 5 km/h 11.1 km/h 99 % 0.25 mm
07:56 4.9 °C 4.8 °C 1029.7 hPa NNW 2.6 km/h 11.1 km/h 99 % 0.25 mm
08:01 5 °C 4.8 °C 1030 hPa NW 3.5 km/h 8.7 km/h 99 % 0.25 mm
08:06 5.1 °C 4.9 °C 1030 hPa NW 2.6 km/h 8.7 km/h 99 % 0.25 mm
08:11 5.2 °C 5.1 °C 1030 hPa NNW 2.6 km/h 8.7 km/h 99 % 0 mm
08:16 5.3 °C 5.2 °C 1030 hPa NNW 3.5 km/h 11.1 km/h 99 % 0 mm
08:21 5.5 °C 5.3 °C 1030 hPa NNW 5 km/h 13.4 km/h 99 % 0 mm
08:26 5.7 °C 5.6 °C 1030 hPa NNW 2.6 km/h 13.4 km/h 99 % 0 mm
08:31 6 °C 5.8 °C 1030 hPa NNW 6.1 km/h 13.4 km/h 99 % 0 mm
08:36 6.2 °C 6.1 °C 1030 hPa NNW 5 km/h 13.4 km/h 99 % 0 mm
08:41 6.4 °C 6.2 °C 1030 hPa NNW 2.6 km/h 13.4 km/h 99 % 0 mm
08:46 6.6 °C 6.4 °C 1030 hPa North 3.5 km/h 12.2 km/h 99 % 0 mm
08:51 6.8 °C 6.6 °C 1030.4 hPa NNW 2.6 km/h 11.1 km/h 99 % 0 mm
08:56 6.8 °C 6.7 °C 1030.4 hPa NNW 5 km/h 12.2 km/h 99 % 0 mm
09:01 6.9 °C 6.8 °C 1030.4 hPa NNW 5 km/h 12.2 km/h 99 % 0 mm
09:06 7.1 °C 6.9 °C 1030.4 hPa North 6.1 km/h 12.2 km/h 99 % 0 mm
09:11 7.2 °C 7 °C 1030.4 hPa NNW 5 km/h 11.1 km/h 99 % 0 mm
09:16 7.4 °C 7.3 °C 1030.4 hPa NNW 5 km/h 12.2 km/h 99 % 0 mm
09:21 7.7 °C 7.6 °C 1030.4 hPa North 6.1 km/h 12.2 km/h 99 % 0 mm
09:26 7.7 °C 7.6 °C 1030.7 hPa NNW 5 km/h 13.4 km/h 99 % 0 mm
09:31 7.8 °C 7.7 °C 1030.7 hPa NNW 5 km/h 13.4 km/h 99 % 0 mm
09:36 8.1 °C 7.9 °C 1030.7 hPa NNW 5 km/h 9.7 km/h 99 % 0 mm
09:41 8.1 °C 7.9 °C 1030.7 hPa NNW 3.5 km/h 14.8 km/h 99 % 0 mm
09:46 8.1 °C 7.9 °C 1030.7 hPa NNW 5 km/h 14.8 km/h 99 % 0 mm
09:51 8.1 °C 7.9 °C 1030.7 hPa NNW 6.1 km/h 12.2 km/h 99 % 0 mm
09:56 8.1 °C 8 °C 1030.7 hPa NNW 3.5 km/h 12.2 km/h 99 % 0 mm
10:01 8.3 °C 8.2 °C 1030.7 hPa North 5 km/h 11.1 km/h 99 % 0 mm
10:06 8.5 °C 8.4 °C 1031 hPa NNW 6.1 km/h 9.7 km/h 99 % 0 mm
10:11 8.9 °C 8.8 °C 1031 hPa NNW 3.5 km/h 9.7 km/h 99 % 0 mm
10:16 9.5 °C 9.3 °C 1031 hPa North 7.2 km/h 12.2 km/h 99 % 0 mm
10:21 9.8 °C 9.7 °C 1031 hPa NNW 3.5 km/h 12.2 km/h 99 % 0 mm
10:26 10.1 °C 9.9 °C 1031 hPa NNW 3.5 km/h 12.2 km/h 99 % 0 mm
10:31 10.4 °C 10.2 °C 1031 hPa NNW 6.1 km/h 15.8 km/h 99 % 0 mm
10:41 11.1 °C 10.9 °C 1031 hPa NNW 7.2 km/h 17.2 km/h 99 % 0 mm
10:46 11.4 °C 11.2 °C 1031.4 hPa NNW 2.6 km/h 11.1 km/h 99 % 0 mm
10:51 11.8 °C 11.6 °C 1031.4 hPa NNW 5 km/h 14.8 km/h 99 % 0 mm
10:56 12.1 °C 11.9 °C 1031 hPa NNW 3.5 km/h 14.8 km/h 99 % 0 mm
11:01 12.2 °C 12.1 °C 1031.4 hPa NW 3.5 km/h 14.8 km/h 99 % 0 mm
11:06 12.2 °C 12 °C 1031.4 hPa NW 8.7 km/h 13.4 km/h 99 % 0 mm
11:11 11.8 °C 11.7 °C 1031 hPa North 5 km/h 13.4 km/h 99 % 0 mm
11:16 11.8 °C 11.6 °C 1031.4 hPa NNW 3.5 km/h 12.2 km/h 99 % 0 mm
11:21 11.8 °C 11.7 °C 1031.4 hPa NNW 8.7 km/h 14.8 km/h 99 % 0 mm
11:26 11.8 °C 11.6 °C 1031.4 hPa NNW 8.7 km/h 17.2 km/h 99 % 0 mm
11:31 11.7 °C 11.5 °C 1031.4 hPa NNW 3.5 km/h 17.2 km/h 99 % 0 mm
11:36 11.8 °C 11.7 °C 1031.4 hPa NNW 6.1 km/h 17.2 km/h 99 % 0 mm
11:41 12.2 °C 12 °C 1031 hPa NNW 5 km/h 14.8 km/h 99 % 0 mm
11:46 12.2 °C 12 °C 1031.4 hPa NNW 5 km/h 14.8 km/h 99 % 0 mm
11:51 12.2 °C 11.9 °C 1031 hPa NNW 7.2 km/h 14.8 km/h 98 % 0 mm
11:56 12.2 °C 11.8 °C 1031.4 hPa NNW 8.7 km/h 14.8 km/h 97 % 0 mm
12:01 12.4 °C 12 °C 1031 hPa NW 6.1 km/h 14.8 km/h 97 % 0 mm
12:06 12.8 °C 12.4 °C 1031 hPa NNW 7.2 km/h 13.4 km/h 97 % 0 mm
12:11 12.9 °C 12.3 °C 1031 hPa North 2.6 km/h 13.4 km/h 96 % 0 mm
12:16 13.1 °C 12.2 °C 1031 hPa North 9.7 km/h 18.3 km/h 94 % 0 mm
12:21 13.2 °C 12.1 °C 1031 hPa North 8.7 km/h 18.3 km/h 93 % 0 mm
12:26 13.2 °C 12.1 °C 1031 hPa NNW 7.2 km/h 15.8 km/h 93 % 0 mm
12:31 13.3 °C 12.1 °C 1031 hPa NNW 6.1 km/h 15.8 km/h 92 % 0 mm
12:36 13.4 °C 12.2 °C 1031 hPa NNW 3.5 km/h 13.4 km/h 92 % 0 mm
12:42 13.4 °C 12 °C 1030.7 hPa North 8.7 km/h 13.4 km/h 91 % 0 mm
12:47 13.3 °C 11.7 °C 1030.7 hPa North 1.1 km/h 13.4 km/h 90 % 0 mm
12:52 13.1 °C 11.6 °C 1030.7 hPa North 6.1 km/h 13.4 km/h 90 % 0 mm
12:57 13.1 °C 11.7 °C 1030.7 hPa NNW 3.5 km/h 13.4 km/h 91 % 0 mm
13:02 13.3 °C 11.9 °C 1030.7 hPa North 6.1 km/h 13.4 km/h 91 % 0 mm
13:07 13.4 °C 12 °C 1030.7 hPa North 5 km/h 13.4 km/h 91 % 0 mm
13:12 13.7 °C 12.3 °C 1030.7 hPa North 2.6 km/h 11.1 km/h 91 % 0 mm
13:17 13.9 °C 12.3 °C 1031 hPa North 7.2 km/h 11.1 km/h 90 % 0 mm
13:22 14 °C 12.4 °C 1030.7 hPa NNW 5 km/h 13.4 km/h 90 % 0 mm
13:27 14 °C 12.2 °C 1030.7 hPa NW 6.1 km/h 13.4 km/h 89 % 0 mm
13:32 13.8 °C 12.1 °C 1030.7 hPa NNW 5 km/h 12.2 km/h 89 % 0 mm
13:37 13.8 °C 12.1 °C 1030.7 hPa North 6.1 km/h 12.2 km/h 89 % 0 mm
13:42 14 °C 12.2 °C 1030.4 hPa North 5 km/h 12.2 km/h 89 % 0 mm
13:47 14.1 °C 12.2 °C 1030.7 hPa NNW 5 km/h 12.2 km/h 88 % 0 mm
13:52 14.3 °C 12.3 °C 1030.4 hPa NNW 3.5 km/h 12.2 km/h 88 % 0 mm
13:57 14.5 °C 12.6 °C 1030.7 hPa NW 5 km/h 12.2 km/h 88 % 0 mm
14:02 14.5 °C 12.4 °C 1030.4 hPa NNW 3.5 km/h 15.8 km/h 87 % 0 mm
14:07 14.5 °C 12.4 °C 1030.7 hPa NNW 5 km/h 15.8 km/h 87 % 0 mm
14:12 14.2 °C 11.9 °C 1030.4 hPa NNW 3.5 km/h 12.2 km/h 86 % 0 mm
14:17 14.2 °C 12.1 °C 1030.4 hPa North 5 km/h 12.2 km/h 87 % 0 mm
14:22 14.4 °C 12.3 °C 1030.7 hPa NNW 6.1 km/h 18.3 km/h 87 % 0 mm
14:27 14.6 °C 12.3 °C 1030.4 hPa NNW 6.1 km/h 18.3 km/h 86 % 0 mm
14:32 14.6 °C 12.3 °C 1030.7 hPa NNW 6.1 km/h 14.8 km/h 86 % 0 mm
14:37 14.7 °C 12.4 °C 1030.7 hPa NW 5 km/h 14.8 km/h 86 % 0 mm
14:42 14.8 °C 12.5 °C 1030.7 hPa NNW 2.6 km/h 13.4 km/h 86 % 0 mm
14:47 14.7 °C 12.4 °C 1030.7 hPa North 7.2 km/h 13.4 km/h 86 % 0 mm
14:52 14.7 °C 12.4 °C 1030.7 hPa NNW 5 km/h 12.2 km/h 86 % 0 mm
14:57 14.7 °C 12.4 °C 1030.4 hPa NNW 6.1 km/h 12.2 km/h 86 % 0 mm
15:02 14.7 °C 12.2 °C 1030.7 hPa NNW 6.1 km/h 14.8 km/h 85 % 0 mm
15:12 14.1 °C 11.6 °C 1030.4 hPa NNW 5 km/h 14.8 km/h 85 % 0 mm
15:17 13.8 °C 11.3 °C 1030.7 hPa NW 7.2 km/h 12.2 km/h 85 % 0 mm
15:22 13.7 °C 11.2 °C 1030.7 hPa NW 7.2 km/h 18.3 km/h 85 % 0 mm
15:27 13.7 °C 11.4 °C 1030.7 hPa NW 3.5 km/h 18.3 km/h 86 % 0 mm
15:32 13.7 °C 11.6 °C 1030.7 hPa North 8.7 km/h 13.4 km/h 87 % 0 mm
15:37 13.6 °C 11.5 °C 1030.7 hPa NNE 7.2 km/h 13.4 km/h 87 % 0 mm
15:42 13.5 °C 11.6 °C 1030.7 hPa NNE 2.6 km/h 11.1 km/h 88 % 0 mm
15:47 13.5 °C 11.6 °C 1030.7 hPa NNE 3.5 km/h 11.1 km/h 88 % 0 mm
15:52 13.4 °C 11.5 °C 1030.7 hPa NNE 5 km/h 11.1 km/h 88 % 0 mm
15:57 13.3 °C 11.4 °C 1030.7 hPa NNE 6.1 km/h 11.1 km/h 88 % 0 mm
16:02 13.1 °C 11.2 °C 1030.7 hPa NNE 6.1 km/h 13.4 km/h 88 % 0 mm
16:07 13.1 °C 11.1 °C 1030.7 hPa NNE 2.6 km/h 13.4 km/h 88 % 0 mm
16:12 13.1 °C 11.3 °C 1030.7 hPa NE 7.2 km/h 11.1 km/h 89 % 0 mm
16:17 13.1 °C 11.3 °C 1030.7 hPa NE 5 km/h 14.8 km/h 89 % 0 mm
16:22 13.1 °C 11.3 °C 1030.7 hPa NE 2.6 km/h 14.8 km/h 89 % 0 mm
16:27 13.1 °C 11.3 °C 1030.7 hPa NNE 6.1 km/h 11.1 km/h 89 % 0 mm
16:32 12.9 °C 11.2 °C 1030.7 hPa NE 6.1 km/h 12.2 km/h 89 % 0 mm
17:21 12.1 °C 10.6 °C 1031 hPa NE 3.5 km/h 9.7 km/h 91 % 0 mm
17:31 11.9 °C 10.7 °C 1031 hPa NE 2.6 km/h 6.1 km/h 92 % 0 mm
17:36 11.9 °C 10.7 °C 1031 hPa NE 2.6 km/h 6.1 km/h 92 % 0 mm
17:41 11.9 °C 10.9 °C 1031.4 hPa NNE 1.1 km/h 7.2 km/h 93 % 0 mm
17:47 11.9 °C 10.9 °C 1031.4 hPa NNE 2.6 km/h 7.2 km/h 93 % 0.25 mm
17:52 11.8 °C 10.9 °C 1031.4 hPa Calm   6.1 km/h 94 % 0.25 mm
17:57 11.8 °C 10.9 °C 1031.4 hPa North 1.1 km/h 6.1 km/h 94 % 0.76 mm
18:02 11.8 °C 11.1 °C 1031.4 hPa NE 2.6 km/h 5 km/h 95 % 0.76 mm
18:07 11.8 °C 11 °C 1031.7 hPa Calm   7.2 km/h 95 % 0.76 mm
18:12 11.8 °C 11.2 °C 1031.4 hPa NNE 1.1 km/h 7.2 km/h 96 % 0.76 mm
18:17 11.7 °C 11.1 °C 1031.7 hPa Calm   5 km/h 96 % 0.76 mm
18:22 11.6 °C 10.9 °C 1031.7 hPa Calm   3.5 km/h 96 % 0.76 mm
18:27 11.6 °C 10.9 °C 1031.7 hPa Calm   3.5 km/h 96 % 0.76 mm
18:32 11.4 °C 11 °C 1031.7 hPa NNW 1.1 km/h 5 km/h 97 % 1.02 mm
18:42 11.4 °C 11 °C 1032.1 hPa North 1.1 km/h 7.2 km/h 97 % 1.02 mm
18:47 11.4 °C 11.1 °C 1032.1 hPa NNE 1.1 km/h 8.7 km/h 98 % 0.76 mm
18:52 11.4 °C 11.1 °C 1032.1 hPa Calm   8.7 km/h 98 % 0.76 mm
18:57 11.4 °C 11.1 °C 1032.1 hPa North 1.1 km/h 7.2 km/h 98 % 0.25 mm
19:02 11.4 °C 11.2 °C 1032.1 hPa North 1.1 km/h 5 km/h 99 % 0.25 mm
19:07 11.4 °C 11.2 °C 1032.1 hPa North 1.1 km/h 6.1 km/h 99 % 0.25 mm
19:12 11.4 °C 11.2 °C 1032.1 hPa NNE 1.1 km/h 6.1 km/h 99 % 0.25 mm
19:17 11.4 °C 11.2 °C 1032.1 hPa NE 5 km/h 6.1 km/h 99 % 0.25 mm
19:22 11.3 °C 11.1 °C 1032.1 hPa NE 1.1 km/h 7.2 km/h 99 % 0.25 mm
19:27 11.3 °C 11.1 °C 1032.1 hPa NNE 1.1 km/h 7.2 km/h 99 % 0 mm
19:32 11.3 °C 11.1 °C 1032.1 hPa NNE 1.1 km/h 5 km/h 99 % 0 mm
19:37 11.3 °C 11.1 °C 1032.1 hPa North 1.1 km/h 5 km/h 99 % 0 mm
19:42 11.2 °C 11 °C 1032.1 hPa North 2.6 km/h 6.1 km/h 99 % 0 mm
19:47 11.2 °C 11 °C 1032.1 hPa North 1.1 km/h 6.1 km/h 99 % 0 mm
19:52 11.2 °C 11 °C 1032.1 hPa Calm   5 km/h 99 % 0 mm
19:57 11.2 °C 11 °C 1032.4 hPa Calm   5 km/h 99 % 0 mm
20:02 11.2 °C 11 °C 1032.4 hPa NNE 1.1 km/h 5 km/h 99 % 0 mm
20:07 11.1 °C 10.9 °C 1032.1 hPa NE 3.5 km/h 8.7 km/h 99 % 0 mm
20:12 11.1 °C 10.9 °C 1032.1 hPa NNE 3.5 km/h 8.7 km/h 99 % 0 mm
20:17 11.1 °C 10.9 °C 1032.1 hPa NNE 5 km/h 11.1 km/h 99 % 0 mm
20:22 11 °C 10.8 °C 1032.4 hPa NNE 1.1 km/h 11.1 km/h 99 % 0 mm
20:27 11.1 °C 10.9 °C 1032.4 hPa Calm   5 km/h 99 % 0 mm
20:32 11.1 °C 10.9 °C 1032.4 hPa NNE 1.1 km/h 5 km/h 99 % 0 mm
20:37 11.1 °C 10.9 °C 1032.4 hPa NNE 2.6 km/h 5 km/h 99 % 0 mm
20:42 11 °C 10.8 °C 1032.4 hPa Calm   5 km/h 99 % 0 mm
20:47 11 °C 10.8 °C 1032.7 hPa Calm   3.5 km/h 99 % 0 mm
20:52 10.9 °C 10.7 °C 1032.7 hPa Calm   5 km/h 99 % 0 mm
20:57 10.9 °C 10.7 °C 1032.4 hPa NNE 2.6 km/h 5 km/h 99 % 0 mm
21:02 10.8 °C 10.6 °C 1032.7 hPa NNE 1.1 km/h 5 km/h 99 % 0 mm
21:07 10.8 °C 10.6 °C 1032.7 hPa NNE 2.6 km/h 5 km/h 99 % 0 mm
21:12 10.7 °C 10.6 °C 1032.4 hPa NNE 1.1 km/h 5 km/h 99 % 0 mm
21:17 10.5 °C 10.3 °C 1032.4 hPa Calm   5 km/h 99 % 0 mm
21:22 10.4 °C 10.2 °C 1032.7 hPa North 1.1 km/h 5 km/h 99 % 0 mm
21:28 10.3 °C 10.2 °C 1032.7 hPa Calm   5 km/h 99 % 0 mm
21:33 10.2 °C 10.1 °C 1032.7 hPa NE 3.5 km/h 6.1 km/h 99 % 0 mm
21:38 10.1 °C 9.9 °C 1032.7 hPa ENE 2.6 km/h 6.1 km/h 99 % 0 mm
21:43 10 °C 9.8 °C 1032.4 hPa ENE 2.6 km/h 6.1 km/h 99 % 0 mm
21:48 9.9 °C 9.8 °C 1032.4 hPa ENE 1.1 km/h 5 km/h 99 % 0 mm
21:53 9.8 °C 9.7 °C 1032.4 hPa NE 1.1 km/h 3.5 km/h 99 % 0 mm
21:58 9.7 °C 9.6 °C 1032.4 hPa NE 1.1 km/h 3.5 km/h 99 % 0 mm
22:03 9.6 °C 9.4 °C 1032.4 hPa Calm   3.5 km/h 99 % 0 mm
22:08 9.5 °C 9.3 °C 1032.4 hPa Calm   3.5 km/h 99 % 0 mm
22:13 9.4 °C 9.3 °C 1032.7 hPa Calm   3.5 km/h 99 % 0 mm
22:18 9.4 °C 9.3 °C 1032.4 hPa ENE 1.1 km/h 3.5 km/h 99 % 0 mm
22:23 9.4 °C 9.3 °C 1032.4 hPa Calm   3.5 km/h 99 % 0 mm
22:28 9.5 °C 9.3 °C 1032.4 hPa Calm   3.5 km/h 99 % 0 mm
22:33 9.5 °C 9.3 °C 1032.4 hPa Calm   5 km/h 99 % 0 mm
22:38 9.4 °C 9.3 °C 1032.4 hPa NE 1.1 km/h 5 km/h 99 % 0 mm
22:43 9.3 °C 9.2 °C 1032.7 hPa Calm   5 km/h 99 % 0 mm
22:48 9.3 °C 9.2 °C 1032.7 hPa NE 1.1 km/h 5 km/h 99 % 0 mm
22:53 9.2 °C 9.1 °C 1032.7 hPa Calm   5 km/h 99 % 0 mm
22:58 9.1 °C 8.9 °C 1032.7 hPa Calm   3.5 km/h 99 % 0 mm
23:03 8.9 °C 8.8 °C 1032.7 hPa Calm   1.1 km/h 99 % 0 mm
23:08 8.8 °C 8.7 °C 1032.7 hPa Calm     99 % 0 mm
23:13 8.7 °C 8.6 °C 1032.7 hPa Calm     99 % 0 mm
23:18 8.7 °C 8.6 °C 1032.4 hPa Calm     99 % 0 mm
Ararat Weather
Compliments of Weather Underground - 1.75 mb
Click here to send mail.


ABOUT

Live weather data from Ararat, Victoria, Australia, 3377
Data uploaded from Cumulus every 5 minutes to Weather Underground.
This site then downloads the raw data for formatting and display.
Metric and imperial data can be displayed. Graphs and historical data available.
Includes Sun and Moon times and rain image live from BOM.

Check out Ararat Weather on Facebook, Twitter and Google +

Help support ongoing costs by checking out the ads





Follow @AraratWeather